sensor_id;sensor_type;location;lat;lon;timestamp;P1;durP1;ratioP1;P2;durP2;ratioP2
11113;SDS011;5610;52.154;9.198;2022-12-19T00:01:27;33.70;;;20.80;;
11113;SDS011;5610;52.154;9.198;2022-12-19T00:04:14;31.52;;;20.83;;
11113;SDS011;5610;52.154;9.198;2022-12-19T00:07:02;32.45;;;20.85;;
11113;SDS011;5610;52.154;9.198;2022-12-19T00:09:47;30.92;;;21.45;;
11113;SDS011;5610;52.154;9.198;2022-12-19T00:12:33;29.13;;;19.90;;
11113;SDS011;5610;52.154;9.198;2022-12-19T00:15:20;30.92;;;20.73;;
11113;SDS011;5610;52.154;9.198;2022-12-19T00:18:05;30.45;;;21.42;;
11113;SDS011;5610;52.154;9.198;2022-12-19T00:20:54;35.00;;;20.63;;
11113;SDS011;5610;52.154;9.198;2022-12-19T00:23:40;31.65;;;21.42;;
11113;SDS011;5610;52.154;9.198;2022-12-19T00:26:26;29.35;;;19.90;;
11113;SDS011;5610;52.154;9.198;2022-12-19T00:29:13;33.60;;;21.85;;
11113;SDS011;5610;52.154;9.198;2022-12-19T00:31:59;32.60;;;21.98;;
11113;SDS011;5610;52.154;9.198;2022-12-19T00:34:44;33.58;;;21.80;;
11113;SDS011;5610;52.154;9.198;2022-12-19T00:37:30;32.50;;;21.40;;
11113;SDS011;5610;52.154;9.198;2022-12-19T00:40:15;31.75;;;22.30;;
11113;SDS011;5610;52.154;9.198;2022-12-19T00:43:00;34.92;;;21.60;;
11113;SDS011;5610;52.154;9.198;2022-12-19T00:45:46;28.70;;;20.73;;
11113;SDS011;5610;52.154;9.198;2022-12-19T00:48:32;28.10;;;20.55;;
11113;SDS011;5610;52.154;9.198;2022-12-19T00:51:20;32.25;;;21.90;;
11113;SDS011;5610;52.154;9.198;2022-12-19T00:54:08;29.30;;;20.98;;
11113;SDS011;5610;52.154;9.198;2022-12-19T00:56:53;33.95;;;20.90;;
11113;SDS011;5610;52.154;9.198;2022-12-19T00:59:40;33.72;;;22.77;;
11113;SDS011;5610;52.154;9.198;2022-12-19T01:02:25;31.95;;;20.73;;
11113;SDS011;5610;52.154;9.198;2022-12-19T01:05:13;31.75;;;21.35;;
11113;SDS011;5610;52.154;9.198;2022-12-19T01:07:58;34.47;;;21.92;;
11113;SDS011;5610;52.154;9.198;2022-12-19T01:10:47;31.42;;;21.70;;
11113;SDS011;5610;52.154;9.198;2022-12-19T01:13:33;29.25;;;18.98;;
11113;SDS011;5610;52.154;9.198;2022-12-19T01:16:18;33.97;;;22.30;;
11113;SDS011;5610;52.154;9.198;2022-12-19T01:19:04;32.83;;;22.05;;
11113;SDS011;5610;52.154;9.198;2022-12-19T01:21:52;33.30;;;21.90;;
11113;SDS011;5610;52.154;9.198;2022-12-19T01:24:37;29.63;;;20.95;;
11113;SDS011;5610;52.154;9.198;2022-12-19T01:27:22;32.17;;;20.90;;
11113;SDS011;5610;52.154;9.198;2022-12-19T01:30:08;29.77;;;21.17;;
11113;SDS011;5610;52.154;9.198;2022-12-19T01:32:55;31.25;;;22.02;;
11113;SDS011;5610;52.154;9.198;2022-12-19T01:35:44;33.28;;;22.08;;
11113;SDS011;5610;52.154;9.198;2022-12-19T01:38:32;34.28;;;20.77;;
11113;SDS011;5610;52.154;9.198;2022-12-19T01:41:18;30.35;;;21.00;;
11113;SDS011;5610;52.154;9.198;2022-12-19T01:44:04;33.92;;;21.70;;
11113;SDS011;5610;52.154;9.198;2022-12-19T01:46:51;31.88;;;21.85;;
11113;SDS011;5610;52.154;9.198;2022-12-19T01:49:40;32.80;;;20.70;;
11113;SDS011;5610;52.154;9.198;2022-12-19T01:52:25;33.30;;;21.92;;
11113;SDS011;5610;52.154;9.198;2022-12-19T01:55:13;30.30;;;20.85;;
11113;SDS011;5610;52.154;9.198;2022-12-19T01:57:59;30.98;;;20.33;;
11113;SDS011;5610;52.154;9.198;2022-12-19T02:00:45;32.88;;;22.35;;
11113;SDS011;5610;52.154;9.198;2022-12-19T02:03:31;32.00;;;20.80;;
11113;SDS011;5610;52.154;9.198;2022-12-19T02:06:18;35.33;;;21.95;;
11113;SDS011;5610;52.154;9.198;2022-12-19T02:09:03;28.08;;;20.35;;
11113;SDS011;5610;52.154;9.198;2022-12-19T02:11:51;31.27;;;20.17;;
11113;SDS011;5610;52.154;9.198;2022-12-19T02:14:37;32.53;;;21.65;;
11113;SDS011;5610;52.154;9.198;2022-12-19T02:17:23;30.10;;;21.70;;
11113;SDS011;5610;52.154;9.198;2022-12-19T02:20:25;30.40;;;21.10;;
11113;SDS011;5610;52.154;9.198;2022-12-19T02:23:54;37.33;;;23.42;;
11113;SDS011;5610;52.154;9.198;2022-12-19T02:27:08;33.25;;;21.92;;
11113;SDS011;5610;52.154;9.198;2022-12-19T02:30:07;33.83;;;22.33;;
11113;SDS011;5610;52.154;9.198;2022-12-19T02:32:59;31.73;;;21.20;;
11113;SDS011;5610;52.154;9.198;2022-12-19T02:35:50;33.50;;;21.23;;
11113;SDS011;5610;52.154;9.198;2022-12-19T02:38:38;30.65;;;21.13;;
11113;SDS011;5610;52.154;9.198;2022-12-19T02:41:27;32.92;;;22.17;;
11113;SDS011;5610;52.154;9.198;2022-12-19T02:44:27;29.77;;;21.05;;
11113;SDS011;5610;52.154;9.198;2022-12-19T02:47:16;32.05;;;21.10;;
11113;SDS011;5610;52.154;9.198;2022-12-19T02:50:05;31.83;;;22.15;;
11113;SDS011;5610;52.154;9.198;2022-12-19T02:52:52;33.25;;;22.67;;
11113;SDS011;5610;52.154;9.198;2022-12-19T02:55:39;31.00;;;21.40;;
11113;SDS011;5610;52.154;9.198;2022-12-19T02:58:35;29.30;;;19.45;;
11113;SDS011;5610;52.154;9.198;2022-12-19T03:01:38;29.30;;;19.88;;
11113;SDS011;5610;52.154;9.198;2022-12-19T03:04:30;31.98;;;21.45;;
11113;SDS011;5610;52.154;9.198;2022-12-19T03:07:28;30.05;;;20.23;;
11113;SDS011;5610;52.154;9.198;2022-12-19T03:10:20;29.63;;;19.98;;
11113;SDS011;5610;52.154;9.198;2022-12-19T03:13:16;28.13;;;19.52;;
11113;SDS011;5610;52.154;9.198;2022-12-19T03:16:05;30.00;;;19.80;;
11113;SDS011;5610;52.154;9.198;2022-12-19T03:18:54;30.05;;;22.05;;
11113;SDS011;5610;52.154;9.198;2022-12-19T03:21:42;30.58;;;20.45;;
11113;SDS011;5610;52.154;9.198;2022-12-19T03:24:31;27.67;;;18.85;;
11113;SDS011;5610;52.154;9.198;2022-12-19T03:27:17;32.72;;;20.70;;
11113;SDS011;5610;52.154;9.198;2022-12-19T03:30:08;31.50;;;20.50;;
11113;SDS011;5610;52.154;9.198;2022-12-19T03:32:55;30.77;;;21.02;;
11113;SDS011;5610;52.154;9.198;2022-12-19T03:35:41;32.80;;;21.30;;
11113;SDS011;5610;52.154;9.198;2022-12-19T03:38:29;25.30;;;18.20;;
11113;SDS011;5610;52.154;9.198;2022-12-19T03:41:16;34.67;;;21.65;;
11113;SDS011;5610;52.154;9.198;2022-12-19T03:44:24;30.65;;;21.75;;
11113;SDS011;5610;52.154;9.198;2022-12-19T03:47:12;30.58;;;20.38;;
11113;SDS011;5610;52.154;9.198;2022-12-19T03:50:01;27.23;;;19.85;;
11113;SDS011;5610;52.154;9.198;2022-12-19T03:52:49;27.55;;;20.00;;
11113;SDS011;5610;52.154;9.198;2022-12-19T03:55:44;28.90;;;20.25;;
11113;SDS011;5610;52.154;9.198;2022-12-19T03:58:34;31.60;;;20.17;;
11113;SDS011;5610;52.154;9.198;2022-12-19T04:01:25;27.85;;;20.27;;
11113;SDS011;5610;52.154;9.198;2022-12-19T04:04:12;30.45;;;20.25;;
11113;SDS011;5610;52.154;9.198;2022-12-19T04:06:59;31.52;;;20.58;;
11113;SDS011;5610;52.154;9.198;2022-12-19T04:09:46;33.40;;;20.73;;
11113;SDS011;5610;52.154;9.198;2022-12-19T04:12:35;31.55;;;21.40;;
11113;SDS011;5610;52.154;9.198;2022-12-19T04:15:28;30.13;;;20.27;;
11113;SDS011;5610;52.154;9.198;2022-12-19T04:18:17;29.35;;;20.80;;
11113;SDS011;5610;52.154;9.198;2022-12-19T04:21:05;31.40;;;21.45;;
11113;SDS011;5610;52.154;9.198;2022-12-19T04:23:57;32.08;;;21.65;;
11113;SDS011;5610;52.154;9.198;2022-12-19T04:26:48;31.67;;;20.38;;
11113;SDS011;5610;52.154;9.198;2022-12-19T04:29:37;31.58;;;20.20;;
11113;SDS011;5610;52.154;9.198;2022-12-19T04:32:25;27.02;;;19.65;;
11113;SDS011;5610;52.154;9.198;2022-12-19T04:35:13;26.98;;;20.00;;
11113;SDS011;5610;52.154;9.198;2022-12-19T04:37:58;29.13;;;19.15;;
11113;SDS011;5610;52.154;9.198;2022-12-19T04:40:44;31.83;;;21.17;;
11113;SDS011;5610;52.154;9.198;2022-12-19T04:43:29;28.77;;;19.92;;
11113;SDS011;5610;52.154;9.198;2022-12-19T04:46:14;35.38;;;20.52;;
11113;SDS011;5610;52.154;9.198;2022-12-19T04:49:01;30.20;;;19.70;;
11113;SDS011;5610;52.154;9.198;2022-12-19T04:51:46;30.92;;;20.48;;
11113;SDS011;5610;52.154;9.198;2022-12-19T04:54:32;33.80;;;20.02;;
11113;SDS011;5610;52.154;9.198;2022-12-19T04:57:17;28.63;;;18.98;;
11113;SDS011;5610;52.154;9.198;2022-12-19T05:00:03;30.42;;;20.65;;
11113;SDS011;5610;52.154;9.198;2022-12-19T05:02:51;31.33;;;20.92;;
11113;SDS011;5610;52.154;9.198;2022-12-19T05:05:37;30.85;;;20.00;;
11113;SDS011;5610;52.154;9.198;2022-12-19T05:08:24;33.83;;;19.25;;
11113;SDS011;5610;52.154;9.198;2022-12-19T05:11:09;30.30;;;20.15;;
11113;SDS011;5610;52.154;9.198;2022-12-19T05:13:56;24.90;;;18.35;;
11113;SDS011;5610;52.154;9.198;2022-12-19T05:16:42;30.92;;;20.17;;
11113;SDS011;5610;52.154;9.198;2022-12-19T05:19:27;29.35;;;20.23;;
11113;SDS011;5610;52.154;9.198;2022-12-19T05:22:14;28.08;;;19.75;;
11113;SDS011;5610;52.154;9.198;2022-12-19T05:24:59;31.98;;;20.20;;
11113;SDS011;5610;52.154;9.198;2022-12-19T05:27:45;24.63;;;19.38;;
11113;SDS011;5610;52.154;9.198;2022-12-19T05:30:30;28.33;;;19.25;;
11113;SDS011;5610;52.154;9.198;2022-12-19T05:33:15;32.45;;;19.05;;
11113;SDS011;5610;52.154;9.198;2022-12-19T05:36:01;27.55;;;20.15;;
11113;SDS011;5610;52.154;9.198;2022-12-19T05:38:48;33.58;;;21.17;;
11113;SDS011;5610;52.154;9.198;2022-12-19T05:41:33;26.95;;;20.23;;
11113;SDS011;5610;52.154;9.198;2022-12-19T05:44:18;32.10;;;20.80;;
11113;SDS011;5610;52.154;9.198;2022-12-19T05:47:04;26.90;;;19.25;;
11113;SDS011;5610;52.154;9.198;2022-12-19T05:49:49;31.15;;;21.05;;
11113;SDS011;5610;52.154;9.198;2022-12-19T05:52:37;28.38;;;19.60;;
11113;SDS011;5610;52.154;9.198;2022-12-19T05:55:24;27.60;;;18.88;;
11113;SDS011;5610;52.154;9.198;2022-12-19T05:58:09;29.52;;;19.85;;
11113;SDS011;5610;52.154;9.198;2022-12-19T06:00:57;27.77;;;19.40;;
11113;SDS011;5610;52.154;9.198;2022-12-19T06:03:46;28.65;;;20.52;;
11113;SDS011;5610;52.154;9.198;2022-12-19T06:06:32;28.30;;;20.88;;
11113;SDS011;5610;52.154;9.198;2022-12-19T06:09:17;27.95;;;20.70;;
11113;SDS011;5610;52.154;9.198;2022-12-19T06:12:04;28.20;;;21.02;;
11113;SDS011;5610;52.154;9.198;2022-12-19T06:14:50;33.65;;;21.98;;
11113;SDS011;5610;52.154;9.198;2022-12-19T06:17:35;29.42;;;21.27;;
11113;SDS011;5610;52.154;9.198;2022-12-19T06:20:20;32.80;;;22.80;;
11113;SDS011;5610;52.154;9.198;2022-12-19T06:23:06;33.75;;;20.27;;
11113;SDS011;5610;52.154;9.198;2022-12-19T06:25:51;31.73;;;22.42;;
11113;SDS011;5610;52.154;9.198;2022-12-19T06:28:38;35.80;;;22.85;;
11113;SDS011;5610;52.154;9.198;2022-12-19T06:31:23;35.97;;;23.70;;
11113;SDS011;5610;52.154;9.198;2022-12-19T06:34:09;34.65;;;23.20;;
11113;SDS011;5610;52.154;9.198;2022-12-19T06:36:55;34.55;;;23.30;;
11113;SDS011;5610;52.154;9.198;2022-12-19T06:39:40;35.50;;;24.90;;
11113;SDS011;5610;52.154;9.198;2022-12-19T06:42:25;39.20;;;24.58;;
11113;SDS011;5610;52.154;9.198;2022-12-19T06:45:11;37.70;;;24.20;;
11113;SDS011;5610;52.154;9.198;2022-12-19T06:47:56;37.38;;;23.98;;
11113;SDS011;5610;52.154;9.198;2022-12-19T06:50:41;35.58;;;24.67;;
11113;SDS011;5610;52.154;9.198;2022-12-19T06:53:27;34.20;;;24.30;;
11113;SDS011;5610;52.154;9.198;2022-12-19T06:56:12;35.97;;;25.20;;
11113;SDS011;5610;52.154;9.198;2022-12-19T06:58:59;41.83;;;25.67;;
11113;SDS011;5610;52.154;9.198;2022-12-19T07:01:50;34.70;;;23.80;;
11113;SDS011;5610;52.154;9.198;2022-12-19T07:04:41;38.00;;;24.30;;
11113;SDS011;5610;52.154;9.198;2022-12-19T07:07:31;36.45;;;24.27;;
11113;SDS011;5610;52.154;9.198;2022-12-19T07:10:16;35.47;;;24.38;;
11113;SDS011;5610;52.154;9.198;2022-12-19T07:13:02;30.50;;;22.73;;
11113;SDS011;5610;52.154;9.198;2022-12-19T07:15:47;35.53;;;25.15;;
11113;SDS011;5610;52.154;9.198;2022-12-19T07:18:35;34.95;;;24.25;;
11113;SDS011;5610;52.154;9.198;2022-12-19T07:21:23;38.10;;;25.55;;
11113;SDS011;5610;52.154;9.198;2022-12-19T07:24:09;34.00;;;24.45;;
11113;SDS011;5610;52.154;9.198;2022-12-19T07:26:56;40.90;;;27.15;;
11113;SDS011;5610;52.154;9.198;2022-12-19T07:29:42;37.95;;;25.33;;
11113;SDS011;5610;52.154;9.198;2022-12-19T07:32:27;36.92;;;24.30;;
11113;SDS011;5610;52.154;9.198;2022-12-19T07:35:13;36.78;;;25.50;;
11113;SDS011;5610;52.154;9.198;2022-12-19T07:38:00;37.00;;;24.40;;
11113;SDS011;5610;52.154;9.198;2022-12-19T07:40:46;43.40;;;27.00;;
11113;SDS011;5610;52.154;9.198;2022-12-19T07:43:32;40.38;;;25.83;;
11113;SDS011;5610;52.154;9.198;2022-12-19T07:46:17;42.30;;;26.75;;
11113;SDS011;5610;52.154;9.198;2022-12-19T07:49:02;38.92;;;26.67;;
11113;SDS011;5610;52.154;9.198;2022-12-19T07:51:49;35.45;;;24.75;;
11113;SDS011;5610;52.154;9.198;2022-12-19T07:54:35;37.47;;;25.40;;
11113;SDS011;5610;52.154;9.198;2022-12-19T07:57:20;35.45;;;25.27;;
11113;SDS011;5610;52.154;9.198;2022-12-19T08:00:06;34.95;;;24.65;;
11113;SDS011;5610;52.154;9.198;2022-12-19T08:02:57;34.67;;;24.20;;
11113;SDS011;5610;52.154;9.198;2022-12-19T08:05:42;36.10;;;26.20;;
11113;SDS011;5610;52.154;9.198;2022-12-19T08:08:29;36.67;;;25.50;;
11113;SDS011;5610;52.154;9.198;2022-12-19T08:11:14;34.08;;;25.70;;
11113;SDS011;5610;52.154;9.198;2022-12-19T08:14:01;36.25;;;25.58;;
11113;SDS011;5610;52.154;9.198;2022-12-19T08:16:46;36.70;;;24.05;;
11113;SDS011;5610;52.154;9.198;2022-12-19T08:19:32;36.90;;;26.50;;
11113;SDS011;5610;52.154;9.198;2022-12-19T08:22:17;41.75;;;25.38;;
11113;SDS011;5610;52.154;9.198;2022-12-19T08:25:04;40.60;;;25.65;;
11113;SDS011;5610;52.154;9.198;2022-12-19T08:27:51;34.53;;;24.98;;
11113;SDS011;5610;52.154;9.198;2022-12-19T08:30:37;42.25;;;27.52;;
11113;SDS011;5610;52.154;9.198;2022-12-19T08:33:22;36.13;;;25.05;;
11113;SDS011;5610;52.154;9.198;2022-12-19T08:36:08;36.85;;;25.35;;
11113;SDS011;5610;52.154;9.198;2022-12-19T08:38:54;40.60;;;25.98;;
11113;SDS011;5610;52.154;9.198;2022-12-19T08:41:41;39.85;;;26.55;;
11113;SDS011;5610;52.154;9.198;2022-12-19T08:44:27;35.40;;;25.83;;
11113;SDS011;5610;52.154;9.198;2022-12-19T08:47:12;35.28;;;25.10;;
11113;SDS011;5610;52.154;9.198;2022-12-19T08:49:58;35.40;;;25.27;;
11113;SDS011;5610;52.154;9.198;2022-12-19T08:52:43;40.38;;;26.45;;
11113;SDS011;5610;52.154;9.198;2022-12-19T08:55:29;38.25;;;27.15;;
11113;SDS011;5610;52.154;9.198;2022-12-19T08:58:16;40.08;;;26.45;;
11113;SDS011;5610;52.154;9.198;2022-12-19T09:01:02;33.45;;;23.27;;
11113;SDS011;5610;52.154;9.198;2022-12-19T09:03:51;30.27;;;23.20;;
11113;SDS011;5610;52.154;9.198;2022-12-19T09:06:36;33.75;;;23.17;;
11113;SDS011;5610;52.154;9.198;2022-12-19T09:09:22;32.92;;;23.65;;
11113;SDS011;5610;52.154;9.198;2022-12-19T09:12:07;34.33;;;24.65;;
11113;SDS011;5610;52.154;9.198;2022-12-19T09:14:54;29.70;;;21.45;;
11113;SDS011;5610;52.154;9.198;2022-12-19T09:17:39;30.10;;;22.55;;
11113;SDS011;5610;52.154;9.198;2022-12-19T09:20:25;32.30;;;21.15;;
11113;SDS011;5610;52.154;9.198;2022-12-19T09:23:10;29.50;;;21.40;;
11113;SDS011;5610;52.154;9.198;2022-12-19T09:25:56;31.70;;;22.27;;
11113;SDS011;5610;52.154;9.198;2022-12-19T09:28:45;30.98;;;22.00;;
11113;SDS011;5610;52.154;9.198;2022-12-19T09:31:32;27.63;;;21.05;;
11113;SDS011;5610;52.154;9.198;2022-12-19T09:34:18;28.80;;;21.60;;
11113;SDS011;5610;52.154;9.198;2022-12-19T09:37:03;27.92;;;20.20;;
11113;SDS011;5610;52.154;9.198;2022-12-19T09:39:49;30.17;;;21.40;;
11113;SDS011;5610;52.154;9.198;2022-12-19T09:42:37;28.77;;;21.60;;
11113;SDS011;5610;52.154;9.198;2022-12-19T09:45:37;29.15;;;21.80;;
11113;SDS011;5610;52.154;9.198;2022-12-19T09:48:31;29.30;;;22.23;;
11113;SDS011;5610;52.154;9.198;2022-12-19T09:51:18;29.63;;;21.77;;
11113;SDS011;5610;52.154;9.198;2022-12-19T09:54:17;27.85;;;21.58;;
11113;SDS011;5610;52.154;9.198;2022-12-19T09:57:11;31.92;;;21.83;;
11113;SDS011;5610;52.154;9.198;2022-12-19T09:59:59;30.67;;;21.13;;
11113;SDS011;5610;52.154;9.198;2022-12-19T10:02:51;29.83;;;22.80;;
11113;SDS011;5610;52.154;9.198;2022-12-19T10:05:41;27.55;;;20.65;;
11113;SDS011;5610;52.154;9.198;2022-12-19T10:08:31;32.38;;;22.98;;
11113;SDS011;5610;52.154;9.198;2022-12-19T10:11:24;27.70;;;20.33;;
11113;SDS011;5610;52.154;9.198;2022-12-19T10:14:24;28.85;;;20.85;;
11113;SDS011;5610;52.154;9.198;2022-12-19T10:17:22;27.05;;;20.80;;
11113;SDS011;5610;52.154;9.198;2022-12-19T10:20:17;25.45;;;20.45;;
11113;SDS011;5610;52.154;9.198;2022-12-19T10:23:19;31.35;;;23.10;;
11113;SDS011;5610;52.154;9.198;2022-12-19T10:26:20;27.77;;;19.80;;
11113;SDS011;5610;52.154;9.198;2022-12-19T10:29:18;27.75;;;20.88;;
11113;SDS011;5610;52.154;9.198;2022-12-19T10:32:26;24.00;;;19.92;;
11113;SDS011;5610;52.154;9.198;2022-12-19T10:35:19;25.38;;;19.70;;
11113;SDS011;5610;52.154;9.198;2022-12-19T10:38:07;28.10;;;19.23;;
11113;SDS011;5610;52.154;9.198;2022-12-19T10:41:09;21.80;;;17.63;;
11113;SDS011;5610;52.154;9.198;2022-12-19T10:44:00;24.02;;;19.48;;
11113;SDS011;5610;52.154;9.198;2022-12-19T10:46:48;29.05;;;20.70;;
11113;SDS011;5610;52.154;9.198;2022-12-19T10:49:34;28.77;;;20.42;;
11113;SDS011;5610;52.154;9.198;2022-12-19T10:55:37;27.52;;;20.45;;
11113;SDS011;5610;52.154;9.198;2022-12-19T10:58:31;23.02;;;19.75;;
11113;SDS011;5610;52.154;9.198;2022-12-19T11:01:19;26.73;;;20.20;;
11113;SDS011;5610;52.154;9.198;2022-12-19T11:04:13;25.35;;;19.73;;
11113;SDS011;5610;52.154;9.198;2022-12-19T11:07:07;25.85;;;20.38;;
11113;SDS011;5610;52.154;9.198;2022-12-19T11:10:02;25.20;;;19.77;;
11113;SDS011;5610;52.154;9.198;2022-12-19T11:13:22;25.10;;;19.35;;
11113;SDS011;5610;52.154;9.198;2022-12-19T11:16:09;26.58;;;19.83;;
11113;SDS011;5610;52.154;9.198;2022-12-19T11:18:55;28.08;;;19.52;;
11113;SDS011;5610;52.154;9.198;2022-12-19T11:21:41;27.80;;;21.42;;
11113;SDS011;5610;52.154;9.198;2022-12-19T11:24:27;25.95;;;19.70;;
11113;SDS011;5610;52.154;9.198;2022-12-19T11:30:32;24.02;;;18.60;;
11113;SDS011;5610;52.154;9.198;2022-12-19T11:33:19;24.40;;;19.08;;
11113;SDS011;5610;52.154;9.198;2022-12-19T11:36:05;26.03;;;19.60;;
11113;SDS011;5610;52.154;9.198;2022-12-19T11:38:51;28.43;;;20.67;;
11113;SDS011;5610;52.154;9.198;2022-12-19T11:41:38;24.40;;;20.27;;
11113;SDS011;5610;52.154;9.198;2022-12-19T11:44:28;28.10;;;21.70;;
11113;SDS011;5610;52.154;9.198;2022-12-19T11:47:28;27.45;;;20.55;;
11113;SDS011;5610;52.154;9.198;2022-12-19T11:50:20;29.67;;;20.80;;
11113;SDS011;5610;52.154;9.198;2022-12-19T11:53:09;25.40;;;21.10;;
11113;SDS011;5610;52.154;9.198;2022-12-19T11:55:59;28.95;;;21.42;;
11113;SDS011;5610;52.154;9.198;2022-12-19T11:58:49;25.70;;;20.42;;
11113;SDS011;5610;52.154;9.198;2022-12-19T12:01:40;28.00;;;21.73;;
11113;SDS011;5610;52.154;9.198;2022-12-19T12:04:36;29.02;;;22.05;;
11113;SDS011;5610;52.154;9.198;2022-12-19T12:07:34;32.33;;;21.97;;
11113;SDS011;5610;52.154;9.198;2022-12-19T12:10:20;27.93;;;22.30;;
11113;SDS011;5610;52.154;9.198;2022-12-19T12:13:09;27.07;;;20.87;;
11113;SDS011;5610;52.154;9.198;2022-12-19T12:16:03;30.63;;;22.37;;
11113;SDS011;5610;52.154;9.198;2022-12-19T12:18:57;30.40;;;22.70;;
11113;SDS011;5610;52.154;9.198;2022-12-19T12:21:52;28.53;;;21.97;;
11113;SDS011;5610;52.154;9.198;2022-12-19T12:24:46;34.57;;;26.17;;
11113;SDS011;5610;52.154;9.198;2022-12-19T12:27:41;30.40;;;23.50;;
11113;SDS011;5610;52.154;9.198;2022-12-19T12:30:32;35.27;;;23.30;;
11113;SDS011;5610;52.154;9.198;2022-12-19T12:33:28;29.77;;;22.97;;
11113;SDS011;5610;52.154;9.198;2022-12-19T12:36:28;27.33;;;20.93;;
11113;SDS011;5610;52.154;9.198;2022-12-19T12:39:27;26.57;;;20.63;;
11113;SDS011;5610;52.154;9.198;2022-12-19T12:42:24;29.57;;;21.40;;
11113;SDS011;5610;52.154;9.198;2022-12-19T12:45:21;26.97;;;21.17;;
11113;SDS011;5610;52.154;9.198;2022-12-19T12:48:15;32.27;;;21.47;;
11113;SDS011;5610;52.154;9.198;2022-12-19T12:51:07;26.73;;;20.73;;
11113;SDS011;5610;52.154;9.198;2022-12-19T12:53:56;26.07;;;20.13;;
11113;SDS011;5610;52.154;9.198;2022-12-19T12:56:47;26.87;;;21.47;;
11113;SDS011;5610;52.154;9.198;2022-12-19T12:59:33;27.63;;;20.80;;
11113;SDS011;5610;52.154;9.198;2022-12-19T13:02:20;28.60;;;22.90;;
11113;SDS011;5610;52.154;9.198;2022-12-19T13:05:14;26.63;;;20.33;;
11113;SDS011;5610;52.154;9.198;2022-12-19T13:08:24;25.13;;;20.13;;
11113;SDS011;5610;52.154;9.198;2022-12-19T13:11:34;24.67;;;19.23;;
11113;SDS011;5610;52.154;9.198;2022-12-19T13:14:43;24.17;;;18.30;;
11113;SDS011;5610;52.154;9.198;2022-12-19T13:20:52;25.97;;;20.30;;
11113;SDS011;5610;52.154;9.198;2022-12-19T13:26:46;27.03;;;18.30;;
11113;SDS011;5610;52.154;9.198;2022-12-19T13:29:50;22.37;;;17.73;;
11113;SDS011;5610;52.154;9.198;2022-12-19T13:35:51;21.77;;;17.27;;
11113;SDS011;5610;52.154;9.198;2022-12-19T13:38:40;24.90;;;16.97;;
11113;SDS011;5610;52.154;9.198;2022-12-19T13:41:30;23.60;;;18.03;;
11113;SDS011;5610;52.154;9.198;2022-12-19T13:44:42;26.02;;;23.05;;
11113;SDS011;5610;52.154;9.198;2022-12-19T13:47:30;25.20;;;20.40;;
11113;SDS011;5610;52.154;9.198;2022-12-19T13:50:28;28.60;;;22.60;;
11113;SDS011;5610;52.154;9.198;2022-12-19T13:53:16;30.50;;;23.43;;
11113;SDS011;5610;52.154;9.198;2022-12-19T13:56:03;32.33;;;25.40;;
11113;SDS011;5610;52.154;9.198;2022-12-19T13:58:51;32.63;;;23.30;;
11113;SDS011;5610;52.154;9.198;2022-12-19T14:01:39;30.03;;;22.90;;
11113;SDS011;5610;52.154;9.198;2022-12-19T14:04:27;32.90;;;23.90;;
11113;SDS011;5610;52.154;9.198;2022-12-19T14:07:24;29.87;;;24.23;;
11113;SDS011;5610;52.154;9.198;2022-12-19T14:10:16;35.87;;;25.13;;
11113;SDS011;5610;52.154;9.198;2022-12-19T14:13:04;34.55;;;24.95;;
11113;SDS011;5610;52.154;9.198;2022-12-19T14:16:13;37.40;;;26.83;;
11113;SDS011;5610;52.154;9.198;2022-12-19T14:18:59;32.53;;;23.30;;
11113;SDS011;5610;52.154;9.198;2022-12-19T14:21:46;33.17;;;23.80;;
11113;SDS011;5610;52.154;9.198;2022-12-19T14:24:31;39.03;;;27.23;;
11113;SDS011;5610;52.154;9.198;2022-12-19T14:27:16;35.58;;;25.63;;
11113;SDS011;5610;52.154;9.198;2022-12-19T14:30:03;45.03;;;32.45;;
11113;SDS011;5610;52.154;9.198;2022-12-19T14:32:51;40.15;;;29.50;;
11113;SDS011;5610;52.154;9.198;2022-12-19T14:35:39;50.57;;;36.93;;
11113;SDS011;5610;52.154;9.198;2022-12-19T14:38:30;37.30;;;28.80;;
11113;SDS011;5610;52.154;9.198;2022-12-19T14:41:18;45.50;;;34.20;;
11113;SDS011;5610;52.154;9.198;2022-12-19T14:44:41;48.88;;;35.05;;
11113;SDS011;5610;52.154;9.198;2022-12-19T14:47:32;44.78;;;31.33;;
11113;SDS011;5610;52.154;9.198;2022-12-19T14:53:14;35.45;;;26.70;;
11113;SDS011;5610;52.154;9.198;2022-12-19T14:56:03;32.83;;;24.05;;
11113;SDS011;5610;52.154;9.198;2022-12-19T14:58:52;34.20;;;26.30;;
11113;SDS011;5610;52.154;9.198;2022-12-19T15:01:39;38.10;;;25.00;;
11113;SDS011;5610;52.154;9.198;2022-12-19T15:04:26;33.33;;;27.02;;
11113;SDS011;5610;52.154;9.198;2022-12-19T15:07:17;30.80;;;23.67;;
11113;SDS011;5610;52.154;9.198;2022-12-19T15:10:06;36.22;;;24.70;;
11113;SDS011;5610;52.154;9.198;2022-12-19T15:12:56;31.10;;;23.33;;
11113;SDS011;5610;52.154;9.198;2022-12-19T15:16:01;30.17;;;22.88;;
11113;SDS011;5610;52.154;9.198;2022-12-19T15:18:48;33.78;;;24.15;;
11113;SDS011;5610;52.154;9.198;2022-12-19T15:21:34;27.90;;;22.50;;
11113;SDS011;5610;52.154;9.198;2022-12-19T15:24:20;32.10;;;23.70;;
11113;SDS011;5610;52.154;9.198;2022-12-19T15:27:07;29.67;;;23.90;;
11113;SDS011;5610;52.154;9.198;2022-12-19T15:29:58;30.80;;;24.48;;
11113;SDS011;5610;52.154;9.198;2022-12-19T15:32:43;29.83;;;23.98;;
11113;SDS011;5610;52.154;9.198;2022-12-19T15:35:29;34.60;;;24.85;;
11113;SDS011;5610;52.154;9.198;2022-12-19T15:38:14;33.63;;;23.50;;
11113;SDS011;5610;52.154;9.198;2022-12-19T15:41:00;34.05;;;24.50;;
11113;SDS011;5610;52.154;9.198;2022-12-19T15:43:46;34.47;;;25.38;;
11113;SDS011;5610;52.154;9.198;2022-12-19T15:46:32;32.95;;;24.45;;
11113;SDS011;5610;52.154;9.198;2022-12-19T15:49:19;30.95;;;23.20;;
11113;SDS011;5610;52.154;9.198;2022-12-19T15:52:09;34.35;;;25.27;;
11113;SDS011;5610;52.154;9.198;2022-12-19T15:54:59;33.28;;;24.98;;
11113;SDS011;5610;52.154;9.198;2022-12-19T15:57:45;30.92;;;24.52;;
11113;SDS011;5610;52.154;9.198;2022-12-19T16:00:35;29.70;;;22.35;;
11113;SDS011;5610;52.154;9.198;2022-12-19T16:03:22;31.92;;;22.90;;
11113;SDS011;5610;52.154;9.198;2022-12-19T16:06:09;35.55;;;24.90;;
11113;SDS011;5610;52.154;9.198;2022-12-19T16:08:57;29.52;;;22.83;;
11113;SDS011;5610;52.154;9.198;2022-12-19T16:11:43;30.63;;;21.88;;
11113;SDS011;5610;52.154;9.198;2022-12-19T16:14:28;33.60;;;23.73;;
11113;SDS011;5610;52.154;9.198;2022-12-19T16:17:14;39.88;;;26.42;;
11113;SDS011;5610;52.154;9.198;2022-12-19T16:20:08;34.28;;;24.10;;
11113;SDS011;5610;52.154;9.198;2022-12-19T16:22:59;30.40;;;22.55;;
11113;SDS011;5610;52.154;9.198;2022-12-19T16:25:46;30.38;;;22.88;;
11113;SDS011;5610;52.154;9.198;2022-12-19T16:28:33;30.10;;;22.77;;
11113;SDS011;5610;52.154;9.198;2022-12-19T16:31:19;30.52;;;23.60;;
11113;SDS011;5610;52.154;9.198;2022-12-19T16:34:10;31.52;;;23.42;;
11113;SDS011;5610;52.154;9.198;2022-12-19T16:37:00;30.20;;;22.95;;
11113;SDS011;5610;52.154;9.198;2022-12-19T16:39:45;30.45;;;22.67;;
11113;SDS011;5610;52.154;9.198;2022-12-19T16:42:30;30.33;;;22.08;;
11113;SDS011;5610;52.154;9.198;2022-12-19T16:45:16;25.83;;;20.53;;
11113;SDS011;5610;52.154;9.198;2022-12-19T16:48:04;30.67;;;22.20;;
11113;SDS011;5610;52.154;9.198;2022-12-19T16:51:01;26.30;;;20.23;;
11113;SDS011;5610;52.154;9.198;2022-12-19T16:53:48;33.70;;;23.48;;
11113;SDS011;5610;52.154;9.198;2022-12-19T16:56:35;28.93;;;21.03;;
11113;SDS011;5610;52.154;9.198;2022-12-19T16:59:24;29.87;;;22.20;;
11113;SDS011;5610;52.154;9.198;2022-12-19T17:02:23;28.38;;;22.88;;